Time;durP1;ratioP1;P1;durP2;ratioP2;P2;SDS_P1;SDS_P2;PMS_P1;PMS_P2;Temp;Humidity;BMP_temperature;BMP_pressure;BME280_temperature;BME280_humidity;BME280_pressure;Samples;Min_cycle;Max_cycle;Signal;HPM_P1;HPM_P2
2024/04/19 00:00:04;;;;;;;9.32;5.28;;;;;;;;;;5395972;26;20028;-67
2024/04/19 00:02:38;;;;;;;7.05;4.65;;;;;;;;;;5388950;26;20022;-65
2024/04/19 00:05:06;;;;;;;8.40;4.70;;;;;;;;;;5391332;26;20467;-65
2024/04/19 00:07:32;;;;;;;6.88;4.43;;;;;;;;;;5372344;26;20043;-65
2024/04/19 00:09:58;;;;;;;7.35;4.60;;;;;;;;;;5410801;26;20003;-65
2024/04/19 00:12:24;;;;;;;7.68;4.68;;;;;;;;;;5344408;26;20523;-65
2024/04/19 00:14:50;;;;;;;9.25;4.80;;;;;;;;;;5404217;26;20032;-64
2024/04/19 00:17:16;;;;;;;9.45;5.32;;;;;;;;;;5377807;26;20031;-65
2024/04/19 00:19:43;;;;;;;10.45;5.40;;;;;;;;;;5376768;26;20083;-64
2024/04/19 00:22:09;;;;;;;9.10;5.30;;;;;;;;;;5409312;26;20000;-66
2024/04/19 00:24:35;;;;;;;7.07;5.28;;;;;;;;;;5403693;26;20449;-65
2024/04/19 00:27:01;;;;;;;7.55;4.78;;;;;;;;;;5364656;26;20032;-66
2024/04/19 00:29:45;;;;;;;8.82;4.78;;;;;;;;;;5377638;26;20032;-65
2024/04/19 00:32:11;;;;;;;6.63;4.40;;;;;;;;;;5406966;26;20031;-65
2024/04/19 00:34:37;;;;;;;7.43;4.50;;;;;;;;;;5404060;26;20040;-65
2024/04/19 00:37:04;;;;;;;8.35;4.95;;;;;;;;;;5377421;26;20043;-66
2024/04/19 00:39:30;;;;;;;8.82;4.97;;;;;;;;;;5377294;26;20043;-65
2024/04/19 00:41:56;;;;;;;8.23;5.00;;;;;;;;;;5405732;26;20035;-65
2024/04/19 00:44:23;;;;;;;6.80;4.82;;;;;;;;;;5408948;26;20522;-65
2024/04/19 00:46:49;;;;;;;8.75;5.50;;;;;;;;;;5404697;26;20032;-65
2024/04/19 00:49:31;;;;;;;9.80;5.13;;;;;;;;;;5405790;26;20040;-65
2024/04/19 00:51:57;;;;;;;9.07;5.00;;;;;;;;;;5377673;26;20384;-67
2024/04/19 00:54:24;;;;;;;8.45;5.22;;;;;;;;;;5408083;26;20031;-65
2024/04/19 00:56:51;;;;;;;8.38;5.10;;;;;;;;;;5391419;26;20499;-65
2024/04/19 00:59:17;;;;;;;10.25;5.95;;;;;;;;;;5402515;26;20023;-65
2024/04/19 01:01:43;;;;;;;9.48;5.15;;;;;;;;;;5402093;26;20060;-65
2024/04/19 01:04:09;;;;;;;14.02;6.22;;;;;;;;;;5392855;26;20021;-66
2024/04/19 01:06:35;;;;;;;10.18;5.65;;;;;;;;;;5405081;26;20455;-65
2024/04/19 01:09:03;;;;;;;15.55;5.80;;;;;;;;;;5405102;26;20023;-65
2024/04/19 01:11:30;;;;;;;9.68;5.90;;;;;;;;;;5403954;26;20043;-65
2024/04/19 01:13:56;;;;;;;11.80;5.57;;;;;;;;;;5405244;26;20495;-64
2024/04/19 01:16:22;;;;;;;10.30;6.00;;;;;;;;;;5373000;26;20031;-67
2024/04/19 01:18:51;;;;;;;11.25;6.25;;;;;;;;;;5396070;26;20036;-68
2024/04/19 01:21:20;;;;;;;9.00;5.35;;;;;;;;;;5408479;26;20027;-66
2024/04/19 01:23:49;;;;;;;8.90;5.60;;;;;;;;;;5405665;26;20032;-65
2024/04/19 01:26:15;;;;;;;12.15;6.40;;;;;;;;;;5409136;26;20182;-68
2024/04/19 01:28:43;;;;;;;11.45;6.40;;;;;;;;;;5397470;26;20039;-65
2024/04/19 01:31:10;;;;;;;13.73;6.30;;;;;;;;;;5405956;26;20051;-65
2024/04/19 01:33:36;;;;;;;10.98;6.03;;;;;;;;;;5394558;26;20043;-65
2024/04/19 01:36:02;;;;;;;12.25;6.30;;;;;;;;;;5405061;26;20542;-64
2024/04/19 01:39:00;;;;;;;11.40;6.28;;;;;;;;;;5329631;26;20038;-65
2024/04/19 01:41:26;;;;;;;11.38;6.15;;;;;;;;;;5406748;26;20032;-66
2024/04/19 01:43:52;;;;;;;11.93;6.57;;;;;;;;;;5404482;26;20031;-64
2024/04/19 01:46:18;;;;;;;11.63;6.72;;;;;;;;;;5409165;26;20023;-64
2024/04/19 01:48:44;;;;;;;12.13;6.88;;;;;;;;;;5399052;26;20036;-66
2024/04/19 01:51:10;;;;;;;13.35;6.60;;;;;;;;;;5394668;26;20035;-66
2024/04/19 01:53:36;;;;;;;12.85;6.90;;;;;;;;;;5399523;26;20032;-65
2024/04/19 01:56:03;;;;;;;11.55;6.53;;;;;;;;;;5398745;26;20032;-64
2024/04/19 01:58:41;;;;;;;11.95;6.80;;;;;;;;;;5394325;26;20042;-65
2024/04/19 02:01:07;;;;;;;13.27;6.72;;;;;;;;;;5395787;26;20409;-64
2024/04/19 02:03:33;;;;;;;14.45;6.68;;;;;;;;;;5402248;26;20039;-64
2024/04/19 02:06:11;;;;;;;12.23;6.80;;;;;;;;;;5403406;26;20028;-65
2024/04/19 02:08:37;;;;;;;11.18;6.15;;;;;;;;;;5406106;26;20023;-65
2024/04/19 02:11:04;;;;;;;12.32;7.22;;;;;;;;;;5405134;26;20099;-65
2024/04/19 02:13:30;;;;;;;15.82;6.82;;;;;;;;;;5403618;26;20071;-65
2024/04/19 02:15:57;;;;;;;13.48;7.03;;;;;;;;;;5403797;26;20044;-65
2024/04/19 02:18:23;;;;;;;15.70;6.97;;;;;;;;;;5407543;26;20023;-65
2024/04/19 02:20:49;;;;;;;13.85;7.28;;;;;;;;;;5406490;26;20375;-65
2024/04/19 02:23:35;;;;;;;11.07;6.00;;;;;;;;;;5407240;26;20027;-64
2024/04/19 02:26:02;;;;;;;14.15;6.55;;;;;;;;;;5395189;26;20039;-65
2024/04/19 02:31:26;;;;;;;14.13;6.65;;;;;;;;;;5340072;26;20028;-64
2024/04/19 02:33:52;;;;;;;15.70;7.63;;;;;;;;;;5409181;26;20024;-65
2024/04/19 02:36:18;;;;;;;14.20;6.70;;;;;;;;;;5407460;26;20035;-65
2024/04/19 02:38:44;;;;;;;12.75;6.63;;;;;;;;;;5406520;26;20385;-64
2024/04/19 02:41:11;;;;;;;14.07;6.95;;;;;;;;;;5411080;26;20019;-64
2024/04/19 02:43:37;;;;;;;14.02;7.15;;;;;;;;;;5404738;26;20052;-64
2024/04/19 02:46:03;;;;;;;14.48;7.18;;;;;;;;;;5410990;26;20031;-65
2024/04/19 02:48:30;;;;;;;13.05;6.28;;;;;;;;;;5406259;26;20023;-66
2024/04/19 02:50:56;;;;;;;14.88;7.10;;;;;;;;;;5406769;26;20383;-65
2024/04/19 02:53:22;;;;;;;15.23;7.03;;;;;;;;;;5416693;26;20019;-65
2024/04/19 02:55:50;;;;;;;14.40;7.50;;;;;;;;;;5405229;26;20024;-65
2024/04/19 02:58:17;;;;;;;13.02;6.82;;;;;;;;;;5408530;26;20028;-64
2024/04/19 03:00:43;;;;;;;17.48;7.32;;;;;;;;;;5407390;26;20098;-64
2024/04/19 03:03:10;;;;;;;12.98;7.25;;;;;;;;;;5407538;26;20031;-63
2024/04/19 03:05:36;;;;;;;11.82;6.20;;;;;;;;;;5375822;26;20023;-65
2024/04/19 03:08:03;;;;;;;11.18;6.15;;;;;;;;;;5408819;26;20032;-64
2024/04/19 03:10:30;;;;;;;14.52;7.15;;;;;;;;;;5407558;26;20028;-65
2024/04/19 03:12:56;;;;;;;14.18;7.15;;;;;;;;;;5406887;26;20407;-65
2024/04/19 03:15:22;;;;;;;13.00;6.90;;;;;;;;;;5415310;26;20028;-65
2024/04/19 03:17:48;;;;;;;11.73;6.38;;;;;;;;;;5411176;26;20051;-64
2024/04/19 03:20:14;;;;;;;13.98;7.20;;;;;;;;;;5408289;26;20027;-65
2024/04/19 03:22:41;;;;;;;13.57;7.13;;;;;;;;;;5398863;26;20036;-64
2024/04/19 03:25:07;;;;;;;13.70;7.18;;;;;;;;;;5401798;26;20384;-65
2024/04/19 03:27:33;;;;;;;13.68;6.78;;;;;;;;;;5402849;26;20052;-65
2024/04/19 03:29:59;;;;;;;13.73;7.25;;;;;;;;;;5411509;26;20382;-65
2024/04/19 03:32:26;;;;;;;16.98;7.82;;;;;;;;;;5416197;26;20031;-66
2024/04/19 03:34:52;;;;;;;13.23;7.70;;;;;;;;;;5420375;26;20036;-64
2024/04/19 03:37:19;;;;;;;14.15;6.72;;;;;;;;;;5412050;26;20035;-65
2024/04/19 03:39:45;;;;;;;15.80;7.57;;;;;;;;;;5407274;26;20496;-63
2024/04/19 03:42:12;;;;;;;15.10;7.03;;;;;;;;;;5410093;26;20023;-65
2024/04/19 03:47:23;;;;;;;15.50;7.57;;;;;;;;;;5413139;26;20037;-64
2024/04/19 03:49:49;;;;;;;15.10;7.22;;;;;;;;;;5403111;26;20043;-64
2024/04/19 03:52:15;;;;;;;14.60;7.13;;;;;;;;;;5407910;26;20032;-64
2024/04/19 03:54:41;;;;;;;13.75;6.88;;;;;;;;;;5404982;26;20027;-65
2024/04/19 03:57:08;;;;;;;13.82;7.40;;;;;;;;;;5411156;26;20039;-64
2024/04/19 03:59:34;;;;;;;14.95;7.63;;;;;;;;;;5405546;26;20040;-65
2024/04/19 04:02:15;;;;;;;17.13;8.07;;;;;;;;;;5405020;26;20035;-63
2024/04/19 04:04:54;;;;;;;15.63;6.70;;;;;;;;;;5383037;26;20024;-64
2024/04/19 04:07:20;;;;;;;12.98;7.30;;;;;;;;;;5410051;26;20036;-63
2024/04/19 04:09:46;;;;;;;16.33;7.30;;;;;;;;;;5408713;26;20040;-64
2024/04/19 04:12:12;;;;;;;13.18;7.20;;;;;;;;;;5379831;26;20040;-63
2024/04/19 04:14:38;;;;;;;15.52;7.38;;;;;;;;;;5406430;26;20344;-65
2024/04/19 04:17:04;;;;;;;13.93;7.05;;;;;;;;;;5410410;26;20040;-65
2024/04/19 04:19:31;;;;;;;13.90;7.18;;;;;;;;;;5406665;26;20043;-64
2024/04/19 04:21:57;;;;;;;13.63;7.25;;;;;;;;;;5409269;26;20118;-67
2024/04/19 04:24:23;;;;;;;12.98;7.20;;;;;;;;;;5375926;26;20379;-64
2024/04/19 04:26:49;;;;;;;15.45;7.45;;;;;;;;;;5404632;26;20028;-65
2024/04/19 04:29:16;;;;;;;14.45;7.43;;;;;;;;;;5384973;26;20024;-65
2024/04/19 04:31:42;;;;;;;14.85;6.97;;;;;;;;;;5406561;26;20027;-65
2024/04/19 04:34:08;;;;;;;14.10;7.32;;;;;;;;;;5410764;26;20412;-65
2024/04/19 04:36:34;;;;;;;14.27;6.95;;;;;;;;;;5407381;26;20384;-65
2024/04/19 04:39:00;;;;;;;13.73;7.03;;;;;;;;;;5410720;26;20031;-66
2024/04/19 04:41:26;;;;;;;14.95;6.90;;;;;;;;;;5417105;26;20027;-65
2024/04/19 04:43:52;;;;;;;12.13;6.65;;;;;;;;;;5409150;26;20023;-66
2024/04/19 04:46:18;;;;;;;15.75;7.82;;;;;;;;;;5412729;26;20506;-65
2024/04/19 04:48:44;;;;;;;14.38;7.25;;;;;;;;;;5404423;26;20032;-64
2024/04/19 04:51:10;;;;;;;15.43;7.93;;;;;;;;;;5412108;26;20028;-62
2024/04/19 04:53:36;;;;;;;17.15;7.65;;;;;;;;;;5403236;26;20027;-61
2024/04/19 04:56:02;;;;;;;12.60;7.10;;;;;;;;;;5408060;26;20026;-62
2024/04/19 04:58:29;;;;;;;14.80;7.18;;;;;;;;;;5407458;26;20032;-62
2024/04/19 05:00:58;;;;;;;14.73;7.22;;;;;;;;;;5404572;26;20040;-62
2024/04/19 05:03:24;;;;;;;21.58;7.43;;;;;;;;;;5399198;26;20031;-61
2024/04/19 05:05:50;;;;;;;13.40;7.15;;;;;;;;;;5404558;26;20036;-62
2024/04/19 05:08:16;;;;;;;16.02;7.93;;;;;;;;;;5409000;26;20386;-62
2024/04/19 05:10:42;;;;;;;16.40;7.60;;;;;;;;;;5401186;26;20039;-62
2024/04/19 05:13:08;;;;;;;14.65;7.53;;;;;;;;;;5406136;26;20487;-63
2024/04/19 05:15:34;;;;;;;17.17;7.60;;;;;;;;;;5403575;26;20023;-64
2024/04/19 05:18:00;;;;;;;17.17;6.75;;;;;;;;;;5405881;26;20028;-62
2024/04/19 05:20:27;;;;;;;12.68;6.40;;;;;;;;;;5411642;26;20028;-62
2024/04/19 05:22:53;;;;;;;15.43;6.88;;;;;;;;;;5366389;26;20011;-63
2024/04/19 05:25:19;;;;;;;14.95;7.20;;;;;;;;;;5393470;26;20098;-63
2024/04/19 05:27:45;;;;;;;11.85;6.72;;;;;;;;;;5402828;26;20032;-63
2024/04/19 05:30:11;;;;;;;14.15;7.40;;;;;;;;;;5407708;26;20027;-63
2024/04/19 05:32:37;;;;;;;12.75;6.50;;;;;;;;;;5406655;26;20483;-60
2024/04/19 05:35:03;;;;;;;11.23;6.50;;;;;;;;;;5408945;26;20035;-63
2024/04/19 05:37:30;;;;;;;13.13;6.68;;;;;;;;;;5388588;26;20035;-62
2024/04/19 05:39:56;;;;;;;15.60;7.57;;;;;;;;;;5406452;26;20102;-63
2024/04/19 05:42:22;;;;;;;13.32;6.57;;;;;;;;;;5383491;26;20031;-63
2024/04/19 05:44:48;;;;;;;12.77;6.90;;;;;;;;;;5405935;26;20024;-63
2024/04/19 05:47:14;;;;;;;15.93;7.53;;;;;;;;;;5405839;26;20386;-63
2024/04/19 05:49:42;;;;;;;11.07;6.13;;;;;;;;;;5405145;26;20032;-63
2024/04/19 05:52:09;;;;;;;12.40;6.30;;;;;;;;;;5406553;26;20023;-63
2024/04/19 05:54:35;;;;;;;12.20;5.53;;;;;;;;;;5407951;26;20023;-63
2024/04/19 05:57:01;;;;;;;10.73;5.60;;;;;;;;;;5380099;26;20035;-63
2024/04/19 05:59:27;;;;;;;13.15;6.13;;;;;;;;;;5403577;26;20115;-63
2024/04/19 06:01:53;;;;;;;10.52;5.40;;;;;;;;;;5404166;26;20506;-63
2024/04/19 06:04:34;;;;;;;15.18;6.75;;;;;;;;;;5405334;26;20027;-64
2024/04/19 06:07:00;;;;;;;13.43;6.18;;;;;;;;;;5405089;26;20039;-62
2024/04/19 06:09:26;;;;;;;10.95;6.20;;;;;;;;;;5406274;26;20031;-62
2024/04/19 06:11:52;;;;;;;10.13;5.40;;;;;;;;;;5405044;26;20495;-63
2024/04/19 06:14:19;;;;;;;10.43;5.55;;;;;;;;;;5406224;26;20024;-63
2024/04/19 06:16:45;;;;;;;13.02;6.18;;;;;;;;;;5404647;26;20028;-62
2024/04/19 06:19:11;;;;;;;10.25;5.40;;;;;;;;;;5406306;26;20027;-62
2024/04/19 06:21:37;;;;;;;15.50;5.22;;;;;;;;;;5402852;26;20023;-63
2024/04/19 06:24:03;;;;;;;9.55;5.32;;;;;;;;;;5404508;26;20370;-64
2024/04/19 06:26:29;;;;;;;9.70;5.57;;;;;;;;;;5375565;26;20650;-63
2024/04/19 06:28:55;;;;;;;12.25;5.55;;;;;;;;;;5406336;26;20039;-63
2024/04/19 06:31:21;;;;;;;10.25;5.18;;;;;;;;;;5407267;26;20039;-62
2024/04/19 06:33:47;;;;;;;10.63;5.88;;;;;;;;;;5407688;26;20031;-63
2024/04/19 06:36:13;;;;;;;9.27;5.28;;;;;;;;;;5407156;26;20035;-62
2024/04/19 06:38:40;;;;;;;9.65;5.40;;;;;;;;;;5402981;26;20487;-64
2024/04/19 06:41:06;;;;;;;10.70;5.68;;;;;;;;;;5407170;26;20029;-63
2024/04/19 06:43:32;;;;;;;10.10;5.15;;;;;;;;;;5405859;26;20415;-62
2024/04/19 06:45:59;;;;;;;9.77;5.63;;;;;;;;;;5378314;26;20020;-63
2024/04/19 06:48:25;;;;;;;8.80;4.97;;;;;;;;;;5410323;26;20028;-63
2024/04/19 06:50:51;;;;;;;11.05;5.05;;;;;;;;;;5411013;26;20369;-62
2024/04/19 06:53:20;;;;;;;11.15;5.80;;;;;;;;;;5405347;26;20379;-62
2024/04/19 06:55:48;;;;;;;9.95;4.88;;;;;;;;;;5402476;26;20028;-62
2024/04/19 06:58:14;;;;;;;9.73;5.18;;;;;;;;;;5404040;26;20019;-62
2024/04/19 07:00:40;;;;;;;11.32;5.75;;;;;;;;;;5401717;26;20027;-63
2024/04/19 07:03:06;;;;;;;9.55;5.03;;;;;;;;;;5377756;26;20028;-63
2024/04/19 07:05:32;;;;;;;9.20;4.82;;;;;;;;;;5403390;26;20027;-61
2024/04/19 07:07:58;;;;;;;10.38;5.07;;;;;;;;;;5405243;26;20715;-61
2024/04/19 07:10:24;;;;;;;9.13;5.10;;;;;;;;;;5405296;26;20582;-62
2024/04/19 07:12:51;;;;;;;11.35;5.60;;;;;;;;;;5396287;26;20028;-63
2024/04/19 07:15:17;;;;;;;11.48;4.72;;;;;;;;;;5394228;26;20028;-62
2024/04/19 07:17:44;;;;;;;8.77;4.63;;;;;;;;;;5393622;26;20027;-62
2024/04/19 07:20:10;;;;;;;9.23;4.53;;;;;;;;;;5397121;26;20395;-63
2024/04/19 07:22:36;;;;;;;9.75;4.63;;;;;;;;;;5404277;26;20479;-63
2024/04/19 07:25:02;;;;;;;8.15;4.53;;;;;;;;;;5376936;26;20039;-63
2024/04/19 07:27:30;;;;;;;7.55;4.32;;;;;;;;;;5408777;26;20023;-63
2024/04/19 07:29:56;;;;;;;9.38;5.28;;;;;;;;;;5408084;26;20043;-63
2024/04/19 07:32:22;;;;;;;9.45;5.20;;;;;;;;;;5409313;26;20020;-63
2024/04/19 07:34:49;;;;;;;10.63;4.40;;;;;;;;;;5406485;26;20037;-63
2024/04/19 07:37:15;;;;;;;10.43;4.70;;;;;;;;;;5413238;26;20028;-63
2024/04/19 07:39:41;;;;;;;8.88;4.60;;;;;;;;;;5407395;26;20028;-62
2024/04/19 07:42:07;;;;;;;8.25;4.40;;;;;;;;;;5412858;26;20499;-62
2024/04/19 07:44:33;;;;;;;7.38;4.30;;;;;;;;;;5404784;26;20063;-62
2024/04/19 07:46:59;;;;;;;8.98;4.93;;;;;;;;;;5409905;26;20023;-62
2024/04/19 07:49:25;;;;;;;9.13;4.97;;;;;;;;;;5382874;26;20024;-62
2024/04/19 07:51:53;;;;;;;8.65;4.57;;;;;;;;;;5405466;26;20032;-63
2024/04/19 07:54:20;;;;;;;11.00;5.38;;;;;;;;;;5410660;26;20043;-62
2024/04/19 07:56:49;;;;;;;7.70;4.38;;;;;;;;;;5405563;26;20028;-62
2024/04/19 07:59:15;;;;;;;8.10;4.82;;;;;;;;;;5386896;26;20023;-63
2024/04/19 08:01:41;;;;;;;7.35;4.20;;;;;;;;;;5409791;26;20027;-62
2024/04/19 08:04:07;;;;;;;7.00;4.63;;;;;;;;;;5403513;26;20530;-63
2024/04/19 08:06:33;;;;;;;7.22;4.35;;;;;;;;;;5405117;26;20035;-63
2024/04/19 08:08:59;;;;;;;9.32;4.80;;;;;;;;;;5377438;26;20047;-63
2024/04/19 08:11:25;;;;;;;8.93;4.90;;;;;;;;;;5409776;26;20032;-62
2024/04/19 08:13:51;;;;;;;9.80;4.63;;;;;;;;;;5408953;26;20111;-62
2024/04/19 08:16:17;;;;;;;12.73;5.03;;;;;;;;;;5408181;26;20035;-62
2024/04/19 08:18:43;;;;;;;8.25;4.75;;;;;;;;;;5404004;26;20032;-62
2024/04/19 08:21:10;;;;;;;9.75;4.97;;;;;;;;;;5408222;26;20479;-62
2024/04/19 08:23:36;;;;;;;9.18;5.03;;;;;;;;;;5408106;26;20039;-62
2024/04/19 08:26:02;;;;;;;9.52;4.72;;;;;;;;;;5412910;26;20019;-62
2024/04/19 08:28:28;;;;;;;8.43;4.35;;;;;;;;;;5409976;26;20023;-64
2024/04/19 08:30:54;;;;;;;9.85;5.35;;;;;;;;;;5404568;26;20024;-62
2024/04/19 08:33:21;;;;;;;8.65;4.45;;;;;;;;;;5412782;26;20040;-62
2024/04/19 08:35:55;;;;;;;8.02;4.05;;;;;;;;;;5406805;26;20024;-64
2024/04/19 08:38:21;;;;;;;9.50;4.88;;;;;;;;;;5409910;26;20035;-64
2024/04/19 08:41:03;;;;;;;8.00;4.75;;;;;;;;;;5407429;26;20048;-63
2024/04/19 08:43:35;;;;;;;7.70;4.30;;;;;;;;;;5402788;26;20043;-62
2024/04/19 08:46:02;;;;;;;7.80;4.63;;;;;;;;;;5411071;26;20027;-62
2024/04/19 08:48:28;;;;;;;7.85;4.22;;;;;;;;;;5403106;26;20032;-64
2024/04/19 08:50:58;;;;;;;8.90;4.53;;;;;;;;;;5405851;26;20024;-63
2024/04/19 08:53:25;;;;;;;7.63;4.47;;;;;;;;;;5407186;26;20024;-63
2024/04/19 08:55:52;;;;;;;7.15;4.38;;;;;;;;;;5404159;26;20028;-64
2024/04/19 08:58:19;;;;;;;7.88;4.35;;;;;;;;;;5408482;26;20044;-63
2024/04/19 09:00:45;;;;;;;9.40;5.10;;;;;;;;;;5378017;26;20067;-65
2024/04/19 09:03:11;;;;;;;8.98;4.57;;;;;;;;;;5408360;26;20024;-64
2024/04/19 09:05:38;;;;;;;8.75;5.05;;;;;;;;;;5403491;26;20027;-63
2024/04/19 09:08:06;;;;;;;7.38;4.70;;;;;;;;;;5392117;26;20024;-63
2024/04/19 09:10:32;;;;;;;10.02;5.60;;;;;;;;;;5405817;26;20371;-63
2024/04/19 09:12:58;;;;;;;8.85;4.68;;;;;;;;;;5378935;26;20031;-64
2024/04/19 09:15:27;;;;;;;10.30;5.03;;;;;;;;;;5410714;26;20036;-64
2024/04/19 09:17:54;;;;;;;6.63;4.32;;;;;;;;;;5405619;26;20037;-64
2024/04/19 09:20:21;;;;;;;7.93;4.88;;;;;;;;;;5407948;26;20047;-64
2024/04/19 09:22:47;;;;;;;7.82;5.22;;;;;;;;;;5414621;26;20771;-63
2024/04/19 09:25:15;;;;;;;8.07;5.03;;;;;;;;;;5408130;26;20031;-63
2024/04/19 09:27:42;;;;;;;7.50;4.75;;;;;;;;;;5406906;26;20031;-63
2024/04/19 09:30:10;;;;;;;8.98;4.65;;;;;;;;;;5410305;26;20028;-63
2024/04/19 09:32:36;;;;;;;8.18;5.05;;;;;;;;;;5399048;26;20032;-63
2024/04/19 09:35:03;;;;;;;8.23;4.90;;;;;;;;;;5407585;26;20570;-63
2024/04/19 09:37:30;;;;;;;8.95;5.10;;;;;;;;;;5382897;26;20035;-64
2024/04/19 09:39:57;;;;;;;7.90;4.75;;;;;;;;;;5381499;26;20039;-63
2024/04/19 09:42:24;;;;;;;8.98;5.13;;;;;;;;;;5407171;26;20605;-63
2024/04/19 09:44:52;;;;;;;9.85;4.90;;;;;;;;;;5405197;26;20026;-63
2024/04/19 09:47:18;;;;;;;9.63;4.28;;;;;;;;;;5409214;26;20040;-63
2024/04/19 09:49:46;;;;;;;7.75;4.65;;;;;;;;;;5375191;26;20024;-63
2024/04/19 09:52:20;;;;;;;6.57;4.60;;;;;;;;;;5406935;26;20024;-62
2024/04/19 09:55:15;;;;;;;7.40;4.57;;;;;;;;;;5375477;26;20388;-63
2024/04/19 09:57:46;;;;;;;7.47;4.22;;;;;;;;;;5407412;26;20032;-64
2024/04/19 10:00:15;;;;;;;7.50;4.72;;;;;;;;;;5403700;26;20031;-64
2024/04/19 10:02:43;;;;;;;7.78;4.97;;;;;;;;;;5409115;26;20395;-63
2024/04/19 10:05:11;;;;;;;6.85;4.63;;;;;;;;;;5395928;26;20023;-63
2024/04/19 10:07:37;;;;;;;8.75;4.47;;;;;;;;;;5405690;26;20488;-62
2024/04/19 10:10:04;;;;;;;7.32;4.50;;;;;;;;;;5408569;26;20028;-65
2024/04/19 10:12:32;;;;;;;6.40;4.20;;;;;;;;;;5406490;26;20031;-63
2024/04/19 10:14:58;;;;;;;7.55;5.07;;;;;;;;;;5408233;26;20027;-65
2024/04/19 10:17:25;;;;;;;7.82;4.63;;;;;;;;;;5410375;26;20031;-64
2024/04/19 10:19:52;;;;;;;9.27;5.22;;;;;;;;;;5323006;26;20701;-64
2024/04/19 10:22:22;;;;;;;6.72;4.35;;;;;;;;;;5398185;26;20027;-64
2024/04/19 10:25:01;;;;;;;6.53;4.22;;;;;;;;;;5395978;26;20032;-65
2024/04/19 10:27:28;;;;;;;7.03;4.28;;;;;;;;;;5378711;26;20028;-63
2024/04/19 10:29:57;;;;;;;8.65;4.47;;;;;;;;;;5406746;26;20043;-64
2024/04/19 10:32:23;;;;;;;7.57;4.83;;;;;;;;;;5407729;26;20031;-65
2024/04/19 10:34:53;;;;;;;7.53;5.05;;;;;;;;;;5405248;26;20036;-62
2024/04/19 10:37:20;;;;;;;7.95;4.68;;;;;;;;;;5403081;26;20386;-63
2024/04/19 10:39:46;;;;;;;9.25;4.68;;;;;;;;;;5405428;26;20387;-64
2024/04/19 10:42:12;;;;;;;7.80;3.80;;;;;;;;;;5382967;26;20035;-64
2024/04/19 10:44:39;;;;;;;7.28;4.35;;;;;;;;;;5376015;26;20000;-64
2024/04/19 10:47:08;;;;;;;6.68;4.30;;;;;;;;;;5406052;26;20039;-63
2024/04/19 10:49:34;;;;;;;7.90;4.70;;;;;;;;;;5402521;26;20032;-63
2024/04/19 10:52:00;;;;;;;6.40;4.00;;;;;;;;;;5406058;26;20027;-63
2024/04/19 10:54:27;;;;;;;6.82;3.97;;;;;;;;;;5406021;26;20390;-62
2024/04/19 10:56:55;;;;;;;4.53;3.47;;;;;;;;;;5369489;26;20028;-63
2024/04/19 10:59:21;;;;;;;5.07;3.70;;;;;;;;;;5406104;26;20043;-63
2024/04/19 11:01:49;;;;;;;5.88;3.70;;;;;;;;;;5406868;26;20036;-63
2024/04/19 11:04:15;;;;;;;4.93;3.33;;;;;;;;;;5381269;26;20027;-63
2024/04/19 11:06:42;;;;;;;6.22;3.17;;;;;;;;;;5406817;26;20030;-64
2024/04/19 11:09:10;;;;;;;8.40;3.83;;;;;;;;;;5408092;26;20375;-64
2024/04/19 11:11:37;;;;;;;5.35;3.50;;;;;;;;;;5376357;26;20051;-62
2024/04/19 11:14:07;;;;;;;5.22;3.72;;;;;;;;;;5398545;26;20486;-64
2024/04/19 11:16:33;;;;;;;;;;;;;;;;;;5397504;26;20143;-63
2024/04/19 11:18:59;;;;;;;5.57;3.53;;;;;;;;;;5369705;26;19933;-63
2024/04/19 11:21:25;;;;;;;5.20;3.22;;;;;;;;;;5397571;26;20043;-64
2024/04/19 11:23:52;;;;;;;4.97;3.30;;;;;;;;;;5397275;26;20028;-63
2024/04/19 11:26:18;;;;;;;4.50;3.42;;;;;;;;;;5411341;26;20039;-63
2024/04/19 11:28:48;;;;;;;5.43;3.55;;;;;;;;;;5408048;26;20496;-63
2024/04/19 11:31:15;;;;;;;6.30;3.30;;;;;;;;;;5411475;26;20027;-64
2024/04/19 11:33:41;;;;;;;5.57;3.78;;;;;;;;;;5408485;26;20383;-64
2024/04/19 11:36:14;;;;;;;5.32;3.78;;;;;;;;;;5410942;26;20491;-64
2024/04/19 11:38:40;;;;;;;5.00;3.03;;;;;;;;;;5384076;26;20036;-63
2024/04/19 11:41:11;;;;;;;4.38;2.95;;;;;;;;;;5408754;26;20028;-63
2024/04/19 11:43:37;;;;;;;5.70;3.60;;;;;;;;;;5379755;26;20038;-63
2024/04/19 11:46:04;;;;;;;3.90;2.88;;;;;;;;;;5407604;26;20023;-63
2024/04/19 11:48:31;;;;;;;4.70;3.53;;;;;;;;;;5402361;26;20024;-64
2024/04/19 11:50:57;;;;;;;4.70;2.92;;;;;;;;;;5407430;26;20391;-64
2024/04/19 11:53:24;;;;;;;4.10;2.80;;;;;;;;;;5376391;26;20031;-64
2024/04/19 11:55:50;;;;;;;5.03;3.45;;;;;;;;;;5405145;26;20496;-64
2024/04/19 11:58:17;;;;;;;4.20;2.90;;;;;;;;;;5408658;26;20047;-64
2024/04/19 12:00:43;;;;;;;5.60;3.33;;;;;;;;;;5405168;26;20023;-64
2024/04/19 12:03:09;;;;;;;4.95;3.25;;;;;;;;;;5412061;26;20031;-64
2024/04/19 12:05:37;;;;;;;4.05;3.30;;;;;;;;;;5406440;26;20036;-64
2024/04/19 12:08:04;;;;;;;4.18;3.00;;;;;;;;;;5420100;26;20374;-65
2024/04/19 12:10:30;;;;;;;6.45;3.22;;;;;;;;;;5407165;26;20028;-66
2024/04/19 12:12:56;;;;;;;4.95;3.00;;;;;;;;;;5409215;26;20030;-65
2024/04/19 12:15:22;;;;;;;3.28;2.50;;;;;;;;;;5412790;26;20023;-64
2024/04/19 12:17:48;;;;;;;6.63;2.97;;;;;;;;;;5391864;26;20036;-64
2024/04/19 12:20:15;;;;;;;4.88;3.13;;;;;;;;;;5409871;26;20039;-65
2024/04/19 12:22:41;;;;;;;3.15;2.40;;;;;;;;;;5406247;26;20036;-63
2024/04/19 12:25:08;;;;;;;4.30;2.83;;;;;;;;;;5411038;26;20503;-64
2024/04/19 12:27:35;;;;;;;3.63;2.58;;;;;;;;;;5407920;26;20036;-64
2024/04/19 12:30:01;;;;;;;4.70;3.03;;;;;;;;;;5407396;26;20376;-63
2024/04/19 12:32:27;;;;;;;4.70;3.00;;;;;;;;;;5408069;26;20036;-64
2024/04/19 12:34:53;;;;;;;5.38;3.42;;;;;;;;;;5406460;26;20031;-65
2024/04/19 12:37:19;;;;;;;4.50;3.00;;;;;;;;;;5414448;26;20031;-65
2024/04/19 12:39:46;;;;;;;5.47;3.20;;;;;;;;;;5373528;26;20066;-65
2024/04/19 12:42:12;;;;;;;4.53;3.22;;;;;;;;;;5375140;26;20039;-64
2024/04/19 12:44:39;;;;;;;5.15;3.30;;;;;;;;;;5405452;26;20399;-65
2024/04/19 12:47:05;;;;;;;5.05;3.47;;;;;;;;;;5407154;26;20027;-66
2024/04/19 12:49:31;;;;;;;4.68;3.03;;;;;;;;;;5399290;26;20520;-64
2024/04/19 12:51:58;;;;;;;4.70;3.10;;;;;;;;;;5380075;26;19999;-66
2024/04/19 12:54:24;;;;;;;5.15;3.20;;;;;;;;;;5404992;26;20032;-65
2024/04/19 12:56:50;;;;;;;5.22;3.78;;;;;;;;;;5406806;26;20027;-66
2024/04/19 12:59:17;;;;;;;5.85;3.67;;;;;;;;;;5402706;26;20024;-65
2024/04/19 13:01:43;;;;;;;5.00;3.03;;;;;;;;;;5402024;26;20040;-65
2024/04/19 13:04:09;;;;;;;5.53;3.10;;;;;;;;;;5410810;26;20041;-66
2024/04/19 13:06:35;;;;;;;5.22;3.65;;;;;;;;;;5366209;26;20664;-64
2024/04/19 13:09:02;;;;;;;5.10;3.35;;;;;;;;;;5407987;26;20047;-65
2024/04/19 13:11:29;;;;;;;5.35;3.35;;;;;;;;;;5410288;26;20653;-64
2024/04/19 13:13:59;;;;;;;7.70;3.60;;;;;;;;;;5408611;26;20035;-67
2024/04/19 13:16:26;;;;;;;7.00;4.32;;;;;;;;;;5409490;26;20027;-65
2024/04/19 13:18:53;;;;;;;7.57;3.63;;;;;;;;;;5369459;26;20376;-64
2024/04/19 13:21:19;;;;;;;5.10;3.55;;;;;;;;;;5381028;26;20379;-66
2024/04/19 13:23:45;;;;;;;5.25;3.20;;;;;;;;;;5384668;26;20035;-65
2024/04/19 13:26:12;;;;;;;5.30;3.20;;;;;;;;;;5411472;26;20047;-65
2024/04/19 13:28:39;;;;;;;6.22;3.55;;;;;;;;;;5410633;26;20019;-67
2024/04/19 13:31:05;;;;;;;4.00;3.15;;;;;;;;;;5408647;26;20035;-65
2024/04/19 13:33:31;;;;;;;5.97;3.25;;;;;;;;;;5410152;26;20046;-66
2024/04/19 13:36:00;;;;;;;6.10;3.92;;;;;;;;;;5412411;26;20019;-65
2024/04/19 13:38:26;;;;;;;5.30;3.47;;;;;;;;;;5413468;26;20031;-65
2024/04/19 13:40:52;;;;;;;6.50;3.25;;;;;;;;;;5409344;26;20027;-64
2024/04/19 13:43:18;;;;;;;4.72;3.00;;;;;;;;;;5372128;26;20000;-64
2024/04/19 13:45:45;;;;;;;5.25;3.83;;;;;;;;;;5410077;26;20031;-63
2024/04/19 13:48:11;;;;;;;5.10;3.15;;;;;;;;;;5409640;26;20504;-64
2024/04/19 13:50:39;;;;;;;4.93;3.20;;;;;;;;;;5411032;26;20022;-65
2024/04/19 13:53:05;;;;;;;5.47;3.30;;;;;;;;;;5409749;26;20024;-65
2024/04/19 13:55:32;;;;;;;6.30;3.85;;;;;;;;;;5402522;26;20020;-64
2024/04/19 13:57:58;;;;;;;6.03;3.75;;;;;;;;;;5412488;26;20031;-65
2024/04/19 14:00:24;;;;;;;5.15;3.45;;;;;;;;;;5411139;26;20495;-64
2024/04/19 14:02:50;;;;;;;5.32;3.42;;;;;;;;;;5411480;26;20028;-65
2024/04/19 14:05:17;;;;;;;7.63;2.95;;;;;;;;;;5411850;26;20027;-65
2024/04/19 14:07:43;;;;;;;7.35;3.13;;;;;;;;;;5410939;26;20028;-64
2024/04/19 14:10:09;;;;;;;5.90;3.45;;;;;;;;;;5410782;26;20491;-67
2024/04/19 14:12:35;;;;;;;5.68;3.30;;;;;;;;;;5410361;26;20027;-65
2024/04/19 14:15:01;;;;;;;6.25;3.47;;;;;;;;;;5382142;26;20023;-65
2024/04/19 14:17:27;;;;;;;4.90;3.10;;;;;;;;;;5398522;26;20049;-65
2024/04/19 14:19:54;;;;;;;4.88;3.10;;;;;;;;;;5399212;26;20380;-64
2024/04/19 14:22:20;;;;;;;5.60;3.35;;;;;;;;;;5403465;26;20031;-65
2024/04/19 14:24:46;;;;;;;5.38;2.70;;;;;;;;;;5401714;26;20063;-65
2024/04/19 14:27:13;;;;;;;4.30;2.60;;;;;;;;;;5411025;26;20031;-66
2024/04/19 14:29:39;;;;;;;5.90;3.03;;;;;;;;;;5380484;26;20480;-66
2024/04/19 14:32:05;;;;;;;3.88;2.65;;;;;;;;;;5403626;26;20039;-65
2024/04/19 14:34:31;;;;;;;7.13;2.92;;;;;;;;;;5398452;26;20035;-66
2024/04/19 14:36:58;;;;;;;6.75;3.17;;;;;;;;;;5413876;26;20036;-64
2024/04/19 14:39:24;;;;;;;4.93;2.90;;;;;;;;;;5399736;26;20028;-64
2024/04/19 14:41:50;;;;;;;4.72;3.00;;;;;;;;;;5415456;26;20487;-64